sensor_id;sensor_type;location;lat;lon;timestamp;P1;durP1;ratioP1;P2;durP2;ratioP2
34741;SDS011;20968;42.696;23.360;2024-01-15T00:00:17;312.58;;;174.07;;
34741;SDS011;20968;42.696;23.360;2024-01-15T00:02:42;366.27;;;180.02;;
34741;SDS011;20968;42.696;23.360;2024-01-15T00:05:08;364.02;;;181.65;;
34741;SDS011;20968;42.696;23.360;2024-01-15T00:07:33;378.52;;;186.65;;
34741;SDS011;20968;42.696;23.360;2024-01-15T00:10:00;389.13;;;180.95;;
34741;SDS011;20968;42.696;23.360;2024-01-15T00:12:26;360.05;;;195.77;;
34741;SDS011;20968;42.696;23.360;2024-01-15T00:14:51;383.73;;;218.65;;
34741;SDS011;20968;42.696;23.360;2024-01-15T00:17:17;352.35;;;188.15;;
34741;SDS011;20968;42.696;23.360;2024-01-15T00:19:42;392.98;;;235.13;;
34741;SDS011;20968;42.696;23.360;2024-01-15T00:22:08;369.38;;;193.43;;
34741;SDS011;20968;42.696;23.360;2024-01-15T00:24:33;435.00;;;210.95;;
34741;SDS011;20968;42.696;23.360;2024-01-15T00:26:59;402.33;;;194.85;;
34741;SDS011;20968;42.696;23.360;2024-01-15T00:29:24;396.33;;;212.02;;
34741;SDS011;20968;42.696;23.360;2024-01-15T00:31:49;468.35;;;237.77;;
34741;SDS011;20968;42.696;23.360;2024-01-15T00:34:15;460.10;;;237.07;;
34741;SDS011;20968;42.696;23.360;2024-01-15T00:36:40;525.83;;;265.00;;
34741;SDS011;20968;42.696;23.360;2024-01-15T00:39:06;572.92;;;287.80;;
34741;SDS011;20968;42.696;23.360;2024-01-15T00:41:31;527.70;;;278.05;;
34741;SDS011;20968;42.696;23.360;2024-01-15T00:43:57;406.10;;;216.93;;
34741;SDS011;20968;42.696;23.360;2024-01-15T00:46:22;446.23;;;243.50;;
34741;SDS011;20968;42.696;23.360;2024-01-15T00:48:48;405.15;;;230.98;;
34741;SDS011;20968;42.696;23.360;2024-01-15T00:51:13;424.70;;;239.05;;
34741;SDS011;20968;42.696;23.360;2024-01-15T00:53:39;499.23;;;277.23;;
34741;SDS011;20968;42.696;23.360;2024-01-15T00:56:05;618.47;;;305.35;;
34741;SDS011;20968;42.696;23.360;2024-01-15T00:58:30;424.73;;;274.85;;
34741;SDS011;20968;42.696;23.360;2024-01-15T01:00:55;564.15;;;316.00;;
34741;SDS011;20968;42.696;23.360;2024-01-15T01:03:21;564.63;;;292.75;;
34741;SDS011;20968;42.696;23.360;2024-01-15T01:05:48;468.33;;;267.00;;
34741;SDS011;20968;42.696;23.360;2024-01-15T01:08:14;535.17;;;267.33;;
34741;SDS011;20968;42.696;23.360;2024-01-15T01:10:40;631.88;;;277.52;;
34741;SDS011;20968;42.696;23.360;2024-01-15T01:13:07;548.15;;;287.77;;
34741;SDS011;20968;42.696;23.360;2024-01-15T01:15:33;512.75;;;313.30;;
34741;SDS011;20968;42.696;23.360;2024-01-15T01:17:59;427.60;;;217.43;;
34741;SDS011;20968;42.696;23.360;2024-01-15T01:20:24;607.70;;;324.58;;
34741;SDS011;20968;42.696;23.360;2024-01-15T01:22:49;541.33;;;284.00;;
34741;SDS011;20968;42.696;23.360;2024-01-15T01:25:15;479.70;;;280.55;;
34741;SDS011;20968;42.696;23.360;2024-01-15T01:27:40;538.90;;;280.60;;
34741;SDS011;20968;42.696;23.360;2024-01-15T01:30:06;756.28;;;329.35;;
34741;SDS011;20968;42.696;23.360;2024-01-15T01:32:32;671.42;;;342.65;;
34741;SDS011;20968;42.696;23.360;2024-01-15T01:34:57;613.22;;;303.77;;
34741;SDS011;20968;42.696;23.360;2024-01-15T01:37:22;742.47;;;356.02;;
34741;SDS011;20968;42.696;23.360;2024-01-15T01:39:48;479.38;;;270.92;;
34741;SDS011;20968;42.696;23.360;2024-01-15T01:42:13;617.20;;;312.75;;
34741;SDS011;20968;42.696;23.360;2024-01-15T01:44:39;695.00;;;349.02;;
34741;SDS011;20968;42.696;23.360;2024-01-15T01:47:04;494.33;;;275.60;;
34741;SDS011;20968;42.696;23.360;2024-01-15T01:49:30;531.38;;;309.48;;
34741;SDS011;20968;42.696;23.360;2024-01-15T01:51:58;557.28;;;293.42;;
34741;SDS011;20968;42.696;23.360;2024-01-15T01:54:26;627.88;;;345.67;;
34741;SDS011;20968;42.696;23.360;2024-01-15T01:56:54;458.00;;;277.67;;
34741;SDS011;20968;42.696;23.360;2024-01-15T01:59:21;507.33;;;261.90;;
34741;SDS011;20968;42.696;23.360;2024-01-15T02:01:48;703.28;;;354.63;;
34741;SDS011;20968;42.696;23.360;2024-01-15T02:04:15;652.13;;;357.20;;
34741;SDS011;20968;42.696;23.360;2024-01-15T02:06:41;611.85;;;300.63;;
34741;SDS011;20968;42.696;23.360;2024-01-15T02:09:07;663.50;;;327.92;;
34741;SDS011;20968;42.696;23.360;2024-01-15T02:11:33;660.65;;;358.65;;
34741;SDS011;20968;42.696;23.360;2024-01-15T02:13:58;627.63;;;300.70;;
34741;SDS011;20968;42.696;23.360;2024-01-15T02:16:24;619.47;;;326.60;;
34741;SDS011;20968;42.696;23.360;2024-01-15T02:18:50;645.78;;;332.30;;
34741;SDS011;20968;42.696;23.360;2024-01-15T02:21:15;647.25;;;370.92;;
34741;SDS011;20968;42.696;23.360;2024-01-15T02:23:41;568.38;;;319.83;;
34741;SDS011;20968;42.696;23.360;2024-01-15T02:26:06;667.60;;;387.58;;
34741;SDS011;20968;42.696;23.360;2024-01-15T02:28:33;927.53;;;435.02;;
34741;SDS011;20968;42.696;23.360;2024-01-15T02:30:59;1213.47;;;530.22;;
34741;SDS011;20968;42.696;23.360;2024-01-15T02:33:24;823.92;;;437.88;;
34741;SDS011;20968;42.696;23.360;2024-01-15T02:35:50;1057.30;;;506.50;;
34741;SDS011;20968;42.696;23.360;2024-01-15T02:38:16;1077.43;;;563.22;;
34741;SDS011;20968;42.696;23.360;2024-01-15T02:40:42;1293.65;;;523.35;;
34741;SDS011;20968;42.696;23.360;2024-01-15T02:43:08;1209.65;;;545.25;;
34741;SDS011;20968;42.696;23.360;2024-01-15T02:45:34;1347.05;;;591.22;;
34741;SDS011;20968;42.696;23.360;2024-01-15T02:47:59;1034.13;;;485.73;;
34741;SDS011;20968;42.696;23.360;2024-01-15T02:50:25;1297.75;;;594.55;;
34741;SDS011;20968;42.696;23.360;2024-01-15T02:52:50;1218.95;;;576.67;;
34741;SDS011;20968;42.696;23.360;2024-01-15T02:55:16;1433.75;;;647.80;;
34741;SDS011;20968;42.696;23.360;2024-01-15T02:57:41;1332.97;;;568.42;;
34741;SDS011;20968;42.696;23.360;2024-01-15T03:00:07;984.90;;;479.80;;
34741;SDS011;20968;42.696;23.360;2024-01-15T03:02:33;1344.50;;;619.80;;
34741;SDS011;20968;42.696;23.360;2024-01-15T03:05:02;1236.15;;;560.80;;
34741;SDS011;20968;42.696;23.360;2024-01-15T03:07:28;1147.40;;;569.78;;
34741;SDS011;20968;42.696;23.360;2024-01-15T03:09:53;1203.90;;;516.38;;
34741;SDS011;20968;42.696;23.360;2024-01-15T03:12:18;1557.45;;;588.58;;
34741;SDS011;20968;42.696;23.360;2024-01-15T03:14:44;1277.22;;;553.67;;
34741;SDS011;20968;42.696;23.360;2024-01-15T03:17:09;1340.57;;;539.58;;
34741;SDS011;20968;42.696;23.360;2024-01-15T03:19:36;1052.10;;;587.78;;
34741;SDS011;20968;42.696;23.360;2024-01-15T03:22:01;1278.25;;;546.55;;
34741;SDS011;20968;42.696;23.360;2024-01-15T03:24:28;1218.78;;;564.72;;
34741;SDS011;20968;42.696;23.360;2024-01-15T03:26:54;1060.90;;;517.22;;
34741;SDS011;20968;42.696;23.360;2024-01-15T03:29:19;1092.85;;;489.08;;
34741;SDS011;20968;42.696;23.360;2024-01-15T03:31:45;1230.15;;;577.40;;
34741;SDS011;20968;42.696;23.360;2024-01-15T03:34:11;1144.28;;;538.25;;
34741;SDS011;20968;42.696;23.360;2024-01-15T03:36:36;942.67;;;480.38;;
34741;SDS011;20968;42.696;23.360;2024-01-15T03:39:02;958.55;;;495.10;;
34741;SDS011;20968;42.696;23.360;2024-01-15T03:41:27;1019.85;;;529.00;;
34741;SDS011;20968;42.696;23.360;2024-01-15T03:43:53;913.63;;;437.52;;
34741;SDS011;20968;42.696;23.360;2024-01-15T03:46:18;1068.78;;;434.33;;
34741;SDS011;20968;42.696;23.360;2024-01-15T03:48:43;863.63;;;443.35;;
34741;SDS011;20968;42.696;23.360;2024-01-15T03:51:09;1034.47;;;454.20;;
34741;SDS011;20968;42.696;23.360;2024-01-15T03:53:34;835.33;;;382.60;;
34741;SDS011;20968;42.696;23.360;2024-01-15T03:56:00;809.45;;;410.65;;
34741;SDS011;20968;42.696;23.360;2024-01-15T03:58:25;1000.10;;;478.33;;
34741;SDS011;20968;42.696;23.360;2024-01-15T04:00:50;740.03;;;400.15;;
34741;SDS011;20968;42.696;23.360;2024-01-15T04:03:16;849.83;;;437.65;;
34741;SDS011;20968;42.696;23.360;2024-01-15T04:05:42;859.45;;;397.95;;
34741;SDS011;20968;42.696;23.360;2024-01-15T04:08:07;667.03;;;349.40;;
34741;SDS011;20968;42.696;23.360;2024-01-15T04:10:32;666.92;;;356.38;;
34741;SDS011;20968;42.696;23.360;2024-01-15T04:12:58;817.08;;;388.15;;
34741;SDS011;20968;42.696;23.360;2024-01-15T04:15:25;743.83;;;347.17;;
34741;SDS011;20968;42.696;23.360;2024-01-15T04:17:51;634.60;;;361.42;;
34741;SDS011;20968;42.696;23.360;2024-01-15T04:20:16;640.60;;;366.45;;
34741;SDS011;20968;42.696;23.360;2024-01-15T04:22:43;902.10;;;382.42;;
34741;SDS011;20968;42.696;23.360;2024-01-15T04:25:09;482.33;;;299.75;;
34741;SDS011;20968;42.696;23.360;2024-01-15T04:27:34;396.08;;;274.13;;
34741;SDS011;20968;42.696;23.360;2024-01-15T04:30:00;588.47;;;319.10;;
34741;SDS011;20968;42.696;23.360;2024-01-15T04:32:25;381.13;;;224.90;;
34741;SDS011;20968;42.696;23.360;2024-01-15T04:34:50;502.45;;;286.17;;
34741;SDS011;20968;42.696;23.360;2024-01-15T04:37:16;599.00;;;293.67;;
34741;SDS011;20968;42.696;23.360;2024-01-15T04:39:41;346.85;;;206.63;;
34741;SDS011;20968;42.696;23.360;2024-01-15T04:42:06;102.68;;;66.22;;
34741;SDS011;20968;42.696;23.360;2024-01-15T04:44:32;112.47;;;57.85;;
34741;SDS011;20968;42.696;23.360;2024-01-15T04:46:57;99.13;;;61.35;;
34741;SDS011;20968;42.696;23.360;2024-01-15T04:49:23;100.47;;;71.35;;
34741;SDS011;20968;42.696;23.360;2024-01-15T04:51:51;152.38;;;76.50;;
34741;SDS011;20968;42.696;23.360;2024-01-15T04:54:16;129.48;;;81.90;;
34741;SDS011;20968;42.696;23.360;2024-01-15T04:56:43;120.43;;;75.70;;
34741;SDS011;20968;42.696;23.360;2024-01-15T04:59:09;105.72;;;76.28;;
34741;SDS011;20968;42.696;23.360;2024-01-15T05:01:35;137.68;;;81.32;;
34741;SDS011;20968;42.696;23.360;2024-01-15T05:04:00;115.45;;;74.72;;
34741;SDS011;20968;42.696;23.360;2024-01-15T05:06:25;168.40;;;89.55;;
34741;SDS011;20968;42.696;23.360;2024-01-15T05:08:51;164.63;;;91.45;;
34741;SDS011;20968;42.696;23.360;2024-01-15T05:11:16;185.35;;;102.97;;
34741;SDS011;20968;42.696;23.360;2024-01-15T05:13:42;104.28;;;71.20;;
34741;SDS011;20968;42.696;23.360;2024-01-15T05:16:07;185.98;;;116.22;;
34741;SDS011;20968;42.696;23.360;2024-01-15T05:18:33;276.90;;;155.68;;
34741;SDS011;20968;42.696;23.360;2024-01-15T05:20:58;364.92;;;192.15;;
34741;SDS011;20968;42.696;23.360;2024-01-15T05:23:24;384.35;;;256.95;;
34741;SDS011;20968;42.696;23.360;2024-01-15T05:25:49;728.45;;;315.20;;
34741;SDS011;20968;42.696;23.360;2024-01-15T05:28:15;600.83;;;292.08;;
34741;SDS011;20968;42.696;23.360;2024-01-15T05:30:40;530.70;;;300.60;;
34741;SDS011;20968;42.696;23.360;2024-01-15T05:33:06;606.72;;;343.20;;
34741;SDS011;20968;42.696;23.360;2024-01-15T05:35:32;627.17;;;302.70;;
34741;SDS011;20968;42.696;23.360;2024-01-15T05:37:58;582.88;;;314.42;;
34741;SDS011;20968;42.696;23.360;2024-01-15T05:40:23;589.50;;;307.58;;
34741;SDS011;20968;42.696;23.360;2024-01-15T05:42:49;617.08;;;329.83;;
34741;SDS011;20968;42.696;23.360;2024-01-15T05:45:14;599.55;;;265.10;;
34741;SDS011;20968;42.696;23.360;2024-01-15T05:47:40;878.33;;;421.90;;
34741;SDS011;20968;42.696;23.360;2024-01-15T05:50:05;798.00;;;345.98;;
34741;SDS011;20968;42.696;23.360;2024-01-15T05:52:31;659.22;;;350.70;;
34741;SDS011;20968;42.696;23.360;2024-01-15T05:54:57;752.08;;;362.73;;
34741;SDS011;20968;42.696;23.360;2024-01-15T05:57:22;1054.95;;;431.45;;
34741;SDS011;20968;42.696;23.360;2024-01-15T05:59:48;650.95;;;364.33;;
34741;SDS011;20968;42.696;23.360;2024-01-15T06:02:13;841.80;;;403.42;;
34741;SDS011;20968;42.696;23.360;2024-01-15T06:04:39;849.47;;;375.00;;
34741;SDS011;20968;42.696;23.360;2024-01-15T06:07:04;676.53;;;369.05;;
34741;SDS011;20968;42.696;23.360;2024-01-15T06:09:30;736.78;;;389.65;;
34741;SDS011;20968;42.696;23.360;2024-01-15T06:11:56;630.67;;;364.92;;
34741;SDS011;20968;42.696;23.360;2024-01-15T06:14:22;654.75;;;334.17;;
34741;SDS011;20968;42.696;23.360;2024-01-15T06:16:47;652.22;;;323.25;;
34741;SDS011;20968;42.696;23.360;2024-01-15T06:19:12;687.63;;;361.40;;
34741;SDS011;20968;42.696;23.360;2024-01-15T06:21:38;634.05;;;337.88;;
34741;SDS011;20968;42.696;23.360;2024-01-15T06:24:03;491.85;;;326.65;;
34741;SDS011;20968;42.696;23.360;2024-01-15T06:26:29;530.00;;;297.45;;
34741;SDS011;20968;42.696;23.360;2024-01-15T06:28:54;632.50;;;324.67;;
34741;SDS011;20968;42.696;23.360;2024-01-15T06:31:20;553.55;;;304.20;;
34741;SDS011;20968;42.696;23.360;2024-01-15T06:33:46;722.75;;;322.13;;
34741;SDS011;20968;42.696;23.360;2024-01-15T06:36:13;481.17;;;273.67;;
34741;SDS011;20968;42.696;23.360;2024-01-15T06:38:39;436.25;;;248.77;;
34741;SDS011;20968;42.696;23.360;2024-01-15T06:41:04;435.52;;;260.50;;
34741;SDS011;20968;42.696;23.360;2024-01-15T06:43:30;431.70;;;227.40;;
34741;SDS011;20968;42.696;23.360;2024-01-15T06:45:55;364.75;;;217.45;;
34741;SDS011;20968;42.696;23.360;2024-01-15T06:48:21;260.30;;;159.00;;
34741;SDS011;20968;42.696;23.360;2024-01-15T06:50:46;456.60;;;219.45;;
34741;SDS011;20968;42.696;23.360;2024-01-15T06:53:11;249.63;;;147.07;;
34741;SDS011;20968;42.696;23.360;2024-01-15T06:55:37;226.02;;;148.50;;
34741;SDS011;20968;42.696;23.360;2024-01-15T06:58:03;215.38;;;148.48;;
34741;SDS011;20968;42.696;23.360;2024-01-15T07:00:28;196.48;;;114.65;;
34741;SDS011;20968;42.696;23.360;2024-01-15T07:02:54;287.55;;;131.13;;
34741;SDS011;20968;42.696;23.360;2024-01-15T07:05:23;196.60;;;113.20;;
34741;SDS011;20968;42.696;23.360;2024-01-15T07:07:48;194.63;;;112.15;;
34741;SDS011;20968;42.696;23.360;2024-01-15T07:10:14;176.20;;;133.32;;
34741;SDS011;20968;42.696;23.360;2024-01-15T07:12:42;178.70;;;110.35;;
34741;SDS011;20968;42.696;23.360;2024-01-15T07:15:08;203.07;;;106.45;;
34741;SDS011;20968;42.696;23.360;2024-01-15T07:17:34;196.00;;;114.22;;
34741;SDS011;20968;42.696;23.360;2024-01-15T07:19:59;157.63;;;89.95;;
34741;SDS011;20968;42.696;23.360;2024-01-15T07:22:25;147.60;;;83.25;;
34741;SDS011;20968;42.696;23.360;2024-01-15T07:24:50;174.52;;;101.15;;
34741;SDS011;20968;42.696;23.360;2024-01-15T07:27:16;190.60;;;112.97;;
34741;SDS011;20968;42.696;23.360;2024-01-15T07:29:41;183.68;;;105.25;;
34741;SDS011;20968;42.696;23.360;2024-01-15T07:32:08;194.10;;;106.18;;
34741;SDS011;20968;42.696;23.360;2024-01-15T07:34:33;178.73;;;110.75;;
34741;SDS011;20968;42.696;23.360;2024-01-15T07:36:58;160.45;;;77.13;;
34741;SDS011;20968;42.696;23.360;2024-01-15T07:39:24;201.55;;;106.63;;
34741;SDS011;20968;42.696;23.360;2024-01-15T07:41:53;175.77;;;103.07;;
34741;SDS011;20968;42.696;23.360;2024-01-15T07:44:18;221.05;;;113.18;;
34741;SDS011;20968;42.696;23.360;2024-01-15T07:46:44;197.75;;;112.93;;
34741;SDS011;20968;42.696;23.360;2024-01-15T07:49:10;189.02;;;100.70;;
34741;SDS011;20968;42.696;23.360;2024-01-15T07:51:36;194.93;;;107.38;;
34741;SDS011;20968;42.696;23.360;2024-01-15T07:54:02;196.00;;;106.57;;
34741;SDS011;20968;42.696;23.360;2024-01-15T07:56:27;215.18;;;115.85;;
34741;SDS011;20968;42.696;23.360;2024-01-15T07:58:53;228.95;;;128.10;;
34741;SDS011;20968;42.696;23.360;2024-01-15T08:01:18;200.88;;;108.38;;
34741;SDS011;20968;42.696;23.360;2024-01-15T08:03:43;244.32;;;140.30;;
34741;SDS011;20968;42.696;23.360;2024-01-15T08:06:09;276.95;;;144.70;;
34741;SDS011;20968;42.696;23.360;2024-01-15T08:08:35;230.30;;;139.98;;
34741;SDS011;20968;42.696;23.360;2024-01-15T08:11:00;221.98;;;124.30;;
34741;SDS011;20968;42.696;23.360;2024-01-15T08:13:26;237.32;;;124.38;;
34741;SDS011;20968;42.696;23.360;2024-01-15T08:15:51;201.65;;;111.97;;
34741;SDS011;20968;42.696;23.360;2024-01-15T08:18:17;239.52;;;125.15;;
34741;SDS011;20968;42.696;23.360;2024-01-15T08:20:42;210.95;;;119.20;;
34741;SDS011;20968;42.696;23.360;2024-01-15T08:23:08;284.42;;;116.70;;
34741;SDS011;20968;42.696;23.360;2024-01-15T08:25:34;215.70;;;117.95;;
34741;SDS011;20968;42.696;23.360;2024-01-15T08:28:00;209.57;;;105.55;;
34741;SDS011;20968;42.696;23.360;2024-01-15T08:30:25;212.48;;;108.28;;
34741;SDS011;20968;42.696;23.360;2024-01-15T08:32:53;232.15;;;117.65;;
34741;SDS011;20968;42.696;23.360;2024-01-15T08:35:19;198.30;;;110.78;;
34741;SDS011;20968;42.696;23.360;2024-01-15T08:37:48;220.02;;;113.20;;
34741;SDS011;20968;42.696;23.360;2024-01-15T08:40:17;205.10;;;112.57;;
34741;SDS011;20968;42.696;23.360;2024-01-15T08:42:42;211.75;;;115.28;;
34741;SDS011;20968;42.696;23.360;2024-01-15T08:45:08;198.88;;;111.15;;
34741;SDS011;20968;42.696;23.360;2024-01-15T08:47:34;205.50;;;106.72;;
34741;SDS011;20968;42.696;23.360;2024-01-15T08:50:01;171.48;;;88.78;;
34741;SDS011;20968;42.696;23.360;2024-01-15T08:52:28;182.02;;;99.50;;
34741;SDS011;20968;42.696;23.360;2024-01-15T08:54:54;182.80;;;94.10;;
34741;SDS011;20968;42.696;23.360;2024-01-15T08:57:20;153.55;;;79.80;;
34741;SDS011;20968;42.696;23.360;2024-01-15T08:59:47;148.02;;;76.78;;
34741;SDS011;20968;42.696;23.360;2024-01-15T09:02:12;156.55;;;83.40;;
34741;SDS011;20968;42.696;23.360;2024-01-15T09:04:38;149.85;;;74.00;;
34741;SDS011;20968;42.696;23.360;2024-01-15T09:07:03;144.80;;;71.75;;
34741;SDS011;20968;42.696;23.360;2024-01-15T09:09:29;123.72;;;66.70;;
34741;SDS011;20968;42.696;23.360;2024-01-15T09:11:54;148.98;;;75.65;;
34741;SDS011;20968;42.696;23.360;2024-01-15T09:14:20;146.55;;;75.57;;
34741;SDS011;20968;42.696;23.360;2024-01-15T09:16:47;149.88;;;74.38;;
34741;SDS011;20968;42.696;23.360;2024-01-15T09:19:12;167.25;;;87.85;;
34741;SDS011;20968;42.696;23.360;2024-01-15T09:21:38;152.52;;;75.53;;
34741;SDS011;20968;42.696;23.360;2024-01-15T09:24:04;170.10;;;83.78;;
34741;SDS011;20968;42.696;23.360;2024-01-15T09:26:29;153.35;;;78.90;;
34741;SDS011;20968;42.696;23.360;2024-01-15T09:28:54;167.30;;;84.65;;
34741;SDS011;20968;42.696;23.360;2024-01-15T09:31:20;168.02;;;83.18;;
34741;SDS011;20968;42.696;23.360;2024-01-15T09:33:46;148.50;;;79.32;;
34741;SDS011;20968;42.696;23.360;2024-01-15T09:36:11;144.10;;;71.93;;
34741;SDS011;20968;42.696;23.360;2024-01-15T09:38:37;143.32;;;73.28;;
34741;SDS011;20968;42.696;23.360;2024-01-15T09:41:05;137.35;;;68.32;;
34741;SDS011;20968;42.696;23.360;2024-01-15T09:43:30;144.93;;;74.63;;
34741;SDS011;20968;42.696;23.360;2024-01-15T09:45:56;150.48;;;72.30;;
34741;SDS011;20968;42.696;23.360;2024-01-15T09:48:22;151.80;;;76.93;;
34741;SDS011;20968;42.696;23.360;2024-01-15T09:50:47;164.02;;;79.35;;
34741;SDS011;20968;42.696;23.360;2024-01-15T09:53:14;157.88;;;83.22;;
34741;SDS011;20968;42.696;23.360;2024-01-15T09:55:40;135.07;;;69.30;;
34741;SDS011;20968;42.696;23.360;2024-01-15T09:58:06;159.18;;;81.78;;
34741;SDS011;20968;42.696;23.360;2024-01-15T10:00:33;139.70;;;62.95;;
34741;SDS011;20968;42.696;23.360;2024-01-15T10:03:01;132.30;;;67.35;;
34741;SDS011;20968;42.696;23.360;2024-01-15T10:05:28;130.88;;;68.35;;
34741;SDS011;20968;42.696;23.360;2024-01-15T10:07:54;122.65;;;63.70;;
34741;SDS011;20968;42.696;23.360;2024-01-15T10:10:21;138.93;;;68.45;;
34741;SDS011;20968;42.696;23.360;2024-01-15T10:12:47;133.90;;;67.28;;
34741;SDS011;20968;42.696;23.360;2024-01-15T10:15:14;135.00;;;70.55;;
34741;SDS011;20968;42.696;23.360;2024-01-15T10:17:39;143.75;;;73.45;;
34741;SDS011;20968;42.696;23.360;2024-01-15T10:20:14;160.77;;;85.13;;
34741;SDS011;20968;42.696;23.360;2024-01-15T10:22:42;146.73;;;70.85;;
34741;SDS011;20968;42.696;23.360;2024-01-15T10:25:12;136.52;;;69.57;;
34741;SDS011;20968;42.696;23.360;2024-01-15T10:27:38;180.05;;;80.25;;
34741;SDS011;20968;42.696;23.360;2024-01-15T10:30:05;306.83;;;123.88;;
34741;SDS011;20968;42.696;23.360;2024-01-15T10:32:31;189.30;;;85.80;;
34741;SDS011;20968;42.696;23.360;2024-01-15T10:34:57;160.00;;;83.43;;
34741;SDS011;20968;42.696;23.360;2024-01-15T10:37:23;147.30;;;72.93;;
34741;SDS011;20968;42.696;23.360;2024-01-15T10:39:49;132.98;;;69.18;;
34741;SDS011;20968;42.696;23.360;2024-01-15T10:42:15;130.73;;;65.43;;
34741;SDS011;20968;42.696;23.360;2024-01-15T10:44:42;151.75;;;76.10;;
34741;SDS011;20968;42.696;23.360;2024-01-15T10:47:08;208.57;;;96.13;;
34741;SDS011;20968;42.696;23.360;2024-01-15T10:49:34;137.68;;;69.47;;
34741;SDS011;20968;42.696;23.360;2024-01-15T10:52:02;151.50;;;67.93;;
34741;SDS011;20968;42.696;23.360;2024-01-15T10:54:28;142.20;;;65.78;;
34741;SDS011;20968;42.696;23.360;2024-01-15T10:56:54;133.02;;;69.50;;
34741;SDS011;20968;42.696;23.360;2024-01-15T10:59:21;142.23;;;66.07;;
34741;SDS011;20968;42.696;23.360;2024-01-15T11:01:50;155.88;;;69.07;;
34741;SDS011;20968;42.696;23.360;2024-01-15T11:04:19;119.80;;;60.78;;
34741;SDS011;20968;42.696;23.360;2024-01-15T11:06:47;137.13;;;63.33;;
34741;SDS011;20968;42.696;23.360;2024-01-15T11:09:15;127.00;;;59.90;;
34741;SDS011;20968;42.696;23.360;2024-01-15T11:11:45;139.02;;;66.07;;
34741;SDS011;20968;42.696;23.360;2024-01-15T11:14:33;147.35;;;68.47;;
34741;SDS011;20968;42.696;23.360;2024-01-15T11:17:03;133.38;;;68.70;;
34741;SDS011;20968;42.696;23.360;2024-01-15T11:19:36;132.40;;;64.85;;
34741;SDS011;20968;42.696;23.360;2024-01-15T11:22:07;123.88;;;62.17;;
34741;SDS011;20968;42.696;23.360;2024-01-15T11:24:34;120.35;;;57.05;;
34741;SDS011;20968;42.696;23.360;2024-01-15T11:27:03;116.47;;;59.45;;
34741;SDS011;20968;42.696;23.360;2024-01-15T11:29:30;121.85;;;50.90;;
34741;SDS011;20968;42.696;23.360;2024-01-15T11:34:50;107.03;;;52.30;;
34741;SDS011;20968;42.696;23.360;2024-01-15T11:37:23;106.50;;;59.63;;
34741;SDS011;20968;42.696;23.360;2024-01-15T11:39:51;116.20;;;52.25;;
34741;SDS011;20968;42.696;23.360;2024-01-15T11:42:17;105.82;;;56.47;;
34741;SDS011;20968;42.696;23.360;2024-01-15T11:44:43;145.27;;;64.30;;
34741;SDS011;20968;42.696;23.360;2024-01-15T11:47:10;127.93;;;52.20;;
34741;SDS011;20968;42.696;23.360;2024-01-15T11:52:25;112.18;;;51.67;;
34741;SDS011;20968;42.696;23.360;2024-01-15T11:55:02;116.57;;;53.42;;
34741;SDS011;20968;42.696;23.360;2024-01-15T11:57:46;106.75;;;53.20;;
34741;SDS011;20968;42.696;23.360;2024-01-15T12:00:15;107.15;;;47.55;;
34741;SDS011;20968;42.696;23.360;2024-01-15T12:02:44;102.55;;;50.78;;
34741;SDS011;20968;42.696;23.360;2024-01-15T12:05:12;113.50;;;55.45;;
34741;SDS011;20968;42.696;23.360;2024-01-15T12:07:39;119.30;;;55.20;;
34741;SDS011;20968;42.696;23.360;2024-01-15T12:10:12;120.63;;;51.78;;
34741;SDS011;20968;42.696;23.360;2024-01-15T12:12:57;120.50;;;54.22;;
34741;SDS011;20968;42.696;23.360;2024-01-15T12:15:29;135.52;;;52.67;;
34741;SDS011;20968;42.696;23.360;2024-01-15T12:17:55;128.07;;;53.33;;
34741;SDS011;20968;42.696;23.360;2024-01-15T12:20:26;115.05;;;46.90;;
34741;SDS011;20968;42.696;23.360;2024-01-15T12:22:51;122.32;;;57.42;;
34741;SDS011;20968;42.696;23.360;2024-01-15T12:25:17;117.82;;;52.70;;
34741;SDS011;20968;42.696;23.360;2024-01-15T12:27:43;121.70;;;53.83;;
34741;SDS011;20968;42.696;23.360;2024-01-15T12:30:12;104.85;;;46.42;;
34741;SDS011;20968;42.696;23.360;2024-01-15T12:32:39;138.93;;;63.72;;
34741;SDS011;20968;42.696;23.360;2024-01-15T12:35:06;140.38;;;62.58;;
34741;SDS011;20968;42.696;23.360;2024-01-15T12:37:34;127.65;;;63.13;;
34741;SDS011;20968;42.696;23.360;2024-01-15T12:40:00;224.80;;;94.53;;
34741;SDS011;20968;42.696;23.360;2024-01-15T12:42:27;162.90;;;83.95;;
34741;SDS011;20968;42.696;23.360;2024-01-15T12:44:54;186.93;;;76.20;;
34741;SDS011;20968;42.696;23.360;2024-01-15T12:47:21;136.52;;;65.28;;
34741;SDS011;20968;42.696;23.360;2024-01-15T12:49:47;137.20;;;58.05;;
34741;SDS011;20968;42.696;23.360;2024-01-15T12:52:19;117.13;;;58.40;;
34741;SDS011;20968;42.696;23.360;2024-01-15T12:54:46;123.13;;;54.55;;
34741;SDS011;20968;42.696;23.360;2024-01-15T12:57:12;140.20;;;57.63;;
34741;SDS011;20968;42.696;23.360;2024-01-15T12:59:37;122.25;;;57.00;;
34741;SDS011;20968;42.696;23.360;2024-01-15T13:02:03;118.70;;;58.03;;
34741;SDS011;20968;42.696;23.360;2024-01-15T13:04:28;117.47;;;58.40;;
34741;SDS011;20968;42.696;23.360;2024-01-15T13:06:54;125.20;;;54.97;;
34741;SDS011;20968;42.696;23.360;2024-01-15T13:09:20;125.90;;;51.03;;
34741;SDS011;20968;42.696;23.360;2024-01-15T13:11:45;120.10;;;57.10;;
34741;SDS011;20968;42.696;23.360;2024-01-15T13:14:11;138.52;;;55.67;;
34741;SDS011;20968;42.696;23.360;2024-01-15T13:16:38;129.38;;;54.33;;
34741;SDS011;20968;42.696;23.360;2024-01-15T13:19:09;124.70;;;56.72;;
34741;SDS011;20968;42.696;23.360;2024-01-15T13:21:36;117.05;;;55.85;;
34741;SDS011;20968;42.696;23.360;2024-01-15T13:24:02;125.35;;;55.38;;
34741;SDS011;20968;42.696;23.360;2024-01-15T13:26:30;154.88;;;65.70;;
34741;SDS011;20968;42.696;23.360;2024-01-15T13:28:56;142.60;;;66.30;;
34741;SDS011;20968;42.696;23.360;2024-01-15T13:31:22;123.20;;;61.45;;
34741;SDS011;20968;42.696;23.360;2024-01-15T13:33:47;174.95;;;72.45;;
34741;SDS011;20968;42.696;23.360;2024-01-15T13:36:13;162.75;;;64.35;;
34741;SDS011;20968;42.696;23.360;2024-01-15T13:38:38;145.60;;;65.00;;
34741;SDS011;20968;42.696;23.360;2024-01-15T13:41:04;178.40;;;71.05;;
34741;SDS011;20968;42.696;23.360;2024-01-15T13:43:31;165.38;;;75.65;;
34741;SDS011;20968;42.696;23.360;2024-01-15T13:45:56;121.40;;;60.35;;
34741;SDS011;20968;42.696;23.360;2024-01-15T13:48:22;137.65;;;60.47;;